Creek Data

    Home     View Charts     View Raw Data     Messages

ID Distance Battery Voltage Battery Current Internal Temp Internal Humidity External Temp Solar Input rssi snr Time Stamp Record
36273 0.0 3.96 -5 37 40 39 0 -89 7 03/29/2025 05:45 AM 18124
36272 0.0 3.96 -5 37 41 40 0 -88 6 03/29/2025 05:30 AM 18123
36271 0.0 4.01 -5 38 41 42 0 -90 7 03/29/2025 05:16 AM 18122
36270 0.0 3.96 -5 39 41 40 0.1 -88 7 03/29/2025 05:00 AM 18121
36269 0.0 3.96 -5 39 41 40 0 -89 8 03/29/2025 04:45 AM 18120
36268 0.0 3.96 -35 40 41 40 0 -89 7 03/29/2025 04:30 AM 18119
36267 15.0 3.96 -5 41 41 43 0 -88 7 03/29/2025 04:15 AM 18118
36266 15.0 3.96 -5 42 40 41 0 -86 8 03/29/2025 04:00 AM 18117
36265 0.0 4.02 -5 44 40 46 0 -93 6 03/29/2025 03:45 AM 18116
36264 0.0 3.97 -5 44 40 46 0 -94 5 03/29/2025 03:30 AM 18115
36263 0.0 4.02 -5 45 40 46 0 -99 5 03/29/2025 03:15 AM 18114
36262 0.0 3.97 -5 45 40 46 0 -96 5 03/29/2025 03:00 AM 18113
36261 0.0 3.97 -5 45 40 47 0 -102 5 03/29/2025 02:46 AM 18112
36260 0.0 3.97 -5 45 40 47 0 -98 5 03/29/2025 02:30 AM 18111
36259 0.0 3.97 -5 46 39 48 0 -89 8 03/29/2025 02:01 AM 18109
36258 0.0 3.97 -5 46 39 48 0 -91 8 03/29/2025 01:45 AM 18108
36257 0.0 3.97 -5 45 40 48 0 -95 6 03/29/2025 01:30 AM 18107
36256 0.0 3.97 -5 44 40 47 0 -90 4 03/29/2025 01:15 AM 18106
36255 0.0 3.98 -5 44 40 46 0 -98 7 03/29/2025 01:00 AM 18105
36254 15.0 4.03 -5 45 40 46 0 -102 3 03/29/2025 12:45 AM 18104
36253 15.0 3.98 -5 45 40 46 0 -92 7 03/29/2025 12:30 AM 18103
36252 15.0 3.98 -31 46 40 47 0 -95 6 03/29/2025 12:15 AM 18102
36251 14.9 4.03 -5 47 40 49 0 -92 7 03/28/2025 11:45 PM 18100
36250 15.0 3.98 -5 46 41 49 0 -90 7 03/28/2025 11:30 PM 18099
36249 15.0 4.03 -5 45 41 47 0.1 -98 7 03/28/2025 11:15 PM 18098